Time;durP1;ratioP1;P1;durP2;ratioP2;P2;SDS_P1;SDS_P2;PMS_P1;PMS_P2;Temp;Humidity;BMP_temperature;BMP_pressure;BME280_temperature;BME280_humidity;BME280_pressure;Samples;Min_cycle;Max_cycle;Signal;HPM_P1;HPM_P2
2023/02/20 00:00:51;;;;;;;8.15;4.32;;;;;;;;;;4959725;28;20031;-51
2023/02/20 00:03:17;;;;;;;10.88;3.92;;;;;;;;;;4964638;28;20023;-53
2023/02/20 00:05:42;;;;;;;11.32;4.60;;;;;;;;;;4963710;28;20043;-55
2023/02/20 00:08:07;;;;;;;10.30;4.10;;;;;;;;;;4963454;28;20037;-48
2023/02/20 00:10:33;;;;;;;10.73;4.63;;;;;;;;;;4966458;28;20126;-56
2023/02/20 00:12:58;;;;;;;11.25;4.78;;;;;;;;;;4964167;28;20558;-50
2023/02/20 00:15:23;;;;;;;11.80;4.47;;;;;;;;;;4967986;28;20041;-49
2023/02/20 00:17:49;;;;;;;9.55;4.05;;;;;;;;;;4968148;28;20043;-52
2023/02/20 00:20:21;;;;;;;13.25;4.93;;;;;;;;;;4968293;28;20030;-47
2023/02/20 00:22:47;;;;;;;8.30;4.07;;;;;;;;;;4969131;28;20054;-49
2023/02/20 00:25:14;;;;;;;9.95;4.32;;;;;;;;;;4968652;28;20035;-51
2023/02/20 00:27:40;;;;;;;9.88;4.40;;;;;;;;;;4966609;28;20030;-52
2023/02/20 00:30:06;;;;;;;12.05;4.82;;;;;;;;;;4967632;28;20097;-46
2023/02/20 00:32:31;;;;;;;12.20;4.55;;;;;;;;;;4966139;28;20031;-50
2023/02/20 00:35:00;;;;;;;12.50;4.07;;;;;;;;;;4963660;28;20027;-50
2023/02/20 00:37:25;;;;;;;12.23;4.18;;;;;;;;;;4966109;28;20053;-48
2023/02/20 00:39:50;;;;;;;12.32;5.00;;;;;;;;;;4962281;28;20118;-48
2023/02/20 00:42:15;;;;;;;9.15;4.72;;;;;;;;;;4963887;28;20039;-52
2023/02/20 00:44:41;;;;;;;10.32;4.80;;;;;;;;;;4962411;28;20039;-57
2023/02/20 00:47:06;;;;;;;12.57;4.38;;;;;;;;;;4966130;28;20392;-52
2023/02/20 00:49:31;;;;;;;12.88;4.57;;;;;;;;;;4965398;28;20038;-52
2023/02/20 00:52:07;;;;;;;12.38;4.60;;;;;;;;;;4964558;28;20039;-55
2023/02/20 00:54:33;;;;;;;10.75;4.45;;;;;;;;;;4962733;28;20038;-52
2023/02/20 00:56:59;;;;;;;8.98;4.18;;;;;;;;;;4963896;28;20031;-49
2023/02/20 00:59:24;;;;;;;11.98;4.68;;;;;;;;;;4962758;28;20030;-53
2023/02/20 01:01:49;;;;;;;7.90;4.35;;;;;;;;;;4962219;28;20571;-53
2023/02/20 01:04:15;;;;;;;9.15;4.55;;;;;;;;;;4967330;28;20034;-50
2023/02/20 01:06:40;;;;;;;9.95;4.20;;;;;;;;;;4973213;28;20384;-53
2023/02/20 01:09:05;;;;;;;11.15;4.68;;;;;;;;;;4961706;28;20466;-50
2023/02/20 01:11:31;;;;;;;11.23;5.07;;;;;;;;;;4977538;28;20055;-48
2023/02/20 01:13:57;;;;;;;9.43;4.93;;;;;;;;;;4962813;28;20472;-52
2023/02/20 01:16:23;;;;;;;13.40;4.93;;;;;;;;;;4964260;28;20102;-52
2023/02/20 01:18:49;;;;;;;12.32;5.00;;;;;;;;;;4968289;28;20059;-48
2023/02/20 01:21:15;;;;;;;9.52;4.75;;;;;;;;;;4962722;28;20126;-52
2023/02/20 01:23:40;;;;;;;12.85;4.85;;;;;;;;;;4963946;28;20188;-54
2023/02/20 01:26:06;;;;;;;11.70;4.32;;;;;;;;;;4958386;28;20031;-55
2023/02/20 01:28:31;;;;;;;9.63;4.10;;;;;;;;;;4963575;28;20129;-54
2023/02/20 01:30:56;;;;;;;8.30;4.72;;;;;;;;;;4962531;28;20042;-53
2023/02/20 01:33:22;;;;;;;9.60;4.50;;;;;;;;;;4962578;28;20392;-57
2023/02/20 01:35:47;;;;;;;14.50;4.85;;;;;;;;;;4942597;28;20093;-50
2023/02/20 01:38:12;;;;;;;14.15;5.72;;;;;;;;;;4959812;28;20054;-58
2023/02/20 01:40:37;;;;;;;11.32;5.63;;;;;;;;;;4959886;28;20086;-49
2023/02/20 01:43:03;;;;;;;13.02;5.82;;;;;;;;;;4959650;28;20070;-59
2023/02/20 01:45:32;;;;;;;16.67;6.63;;;;;;;;;;4961579;28;20118;-49
2023/02/20 01:47:58;;;;;;;15.45;6.47;;;;;;;;;;4961365;28;20424;-55
2023/02/20 01:50:38;;;;;;;12.90;5.28;;;;;;;;;;4975995;28;20041;-54
2023/02/20 01:53:07;;;;;;;15.38;5.53;;;;;;;;;;4967797;28;20964;-51
2023/02/20 01:55:38;;;;;;;13.95;5.57;;;;;;;;;;4967743;28;20046;-47
2023/02/20 01:58:09;;;;;;;10.18;5.20;;;;;;;;;;4981219;28;20150;-47
2023/02/20 02:00:35;;;;;;;9.88;5.07;;;;;;;;;;4965155;28;20411;-51
2023/02/20 02:03:04;;;;;;;12.30;4.95;;;;;;;;;;4964942;28;20532;-54
2023/02/20 02:05:29;;;;;;;8.02;4.45;;;;;;;;;;4966216;28;20137;-51
2023/02/20 02:07:55;;;;;;;9.57;4.45;;;;;;;;;;4965214;28;20089;-50
2023/02/20 02:10:25;;;;;;;10.20;4.55;;;;;;;;;;4964023;28;20435;-50
2023/02/20 02:12:52;;;;;;;8.15;4.47;;;;;;;;;;4981701;28;20252;-48
2023/02/20 02:15:19;;;;;;;11.23;5.00;;;;;;;;;;4980202;28;20041;-55
2023/02/20 02:17:44;;;;;;;9.77;4.93;;;;;;;;;;4964878;28;20018;-55
2023/02/20 02:20:36;;;;;;;11.60;4.93;;;;;;;;;;4961839;28;20037;-50
2023/02/20 02:23:20;;;;;;;9.93;4.95;;;;;;;;;;4945104;28;20043;-50
2023/02/20 02:25:47;;;;;;;9.65;4.95;;;;;;;;;;4948797;28;20035;-50
2023/02/20 02:28:27;;;;;;;15.93;5.72;;;;;;;;;;4965413;28;20053;-52
2023/02/20 02:30:53;;;;;;;9.15;4.82;;;;;;;;;;4978612;28;20042;-57
2023/02/20 02:33:40;;;;;;;15.45;6.95;;;;;;;;;;4958939;28;20072;-53
2023/02/20 02:36:21;;;;;;;16.80;5.65;;;;;;;;;;4964273;28;20069;-51
2023/02/20 02:38:51;;;;;;;13.57;6.43;;;;;;;;;;4958602;28;20063;-50
2023/02/20 02:41:16;;;;;;;10.30;6.10;;;;;;;;;;4981660;28;20140;-52
2023/02/20 02:43:59;;;;;;;10.68;5.70;;;;;;;;;;4966816;28;20612;-49
2023/02/20 02:46:38;;;;;;;10.65;5.68;;;;;;;;;;4964166;28;20031;-47
2023/02/20 02:49:13;;;;;;;9.88;5.57;;;;;;;;;;4961306;28;20384;-48
2023/02/20 02:51:44;;;;;;;14.45;5.60;;;;;;;;;;4962645;28;20583;-56
2023/02/20 02:54:15;;;;;;;16.00;5.32;;;;;;;;;;4964895;28;20027;-54
2023/02/20 02:56:44;;;;;;;7.63;4.85;;;;;;;;;;4979905;28;20035;-55
2023/02/20 02:59:11;;;;;;;14.60;5.10;;;;;;;;;;4957321;28;20120;-55
2023/02/20 03:01:41;;;;;;;9.73;6.13;;;;;;;;;;4962616;28;20035;-51
2023/02/20 03:04:09;;;;;;;13.95;5.57;;;;;;;;;;4965054;28;20121;-51
2023/02/20 03:06:40;;;;;;;18.73;6.07;;;;;;;;;;4962693;28;20031;-51
2023/02/20 03:09:12;;;;;;;11.80;5.38;;;;;;;;;;4972946;28;20031;-52
2023/02/20 03:11:38;;;;;;;12.00;5.80;;;;;;;;;;4964619;28;20035;-50
2023/02/20 03:16:55;;;;;;;11.52;5.53;;;;;;;;;;4964412;28;20113;-52
2023/02/20 03:19:31;;;;;;;10.70;5.40;;;;;;;;;;4978337;28;20435;-53
2023/02/20 03:21:57;;;;;;;10.90;5.72;;;;;;;;;;4963313;28;20476;-51
2023/02/20 03:24:24;;;;;;;8.00;4.88;;;;;;;;;;4963156;28;20078;-49
2023/02/20 03:26:52;;;;;;;10.18;5.45;;;;;;;;;;4963887;28;20046;-55
2023/02/20 03:29:26;;;;;;;12.48;5.13;;;;;;;;;;4976384;28;20380;-51
2023/02/20 03:46:10;;;;;;;15.50;6.50;;;;;;;;;;4950307;28;20425;-53
2023/02/20 03:48:46;;;;;;;13.25;6.20;;;;;;;;;;4964422;28;20547;-54
2023/02/20 03:51:12;;;;;;;13.43;6.35;;;;;;;;;;4974290;28;20107;-52
2023/02/20 03:53:58;;;;;;;19.40;7.63;;;;;;;;;;4961052;28;20042;-50
2023/02/20 03:56:26;;;;;;;12.75;7.10;;;;;;;;;;4961915;28;20037;-47
2023/02/20 03:58:54;;;;;;;23.05;8.15;;;;;;;;;;4961747;28;20043;-52
2023/02/20 04:01:20;;;;;;;19.42;7.95;;;;;;;;;;4963771;28;20142;-56
2023/02/20 04:03:48;;;;;;;18.27;7.13;;;;;;;;;;4973569;28;20073;-54
2023/02/20 04:06:14;;;;;;;12.13;6.50;;;;;;;;;;4964296;28;20090;-55
2023/02/20 04:08:45;;;;;;;17.75;6.82;;;;;;;;;;4962192;28;20034;-52
2023/02/20 04:11:11;;;;;;;16.10;6.70;;;;;;;;;;4961087;28;20405;-53
2023/02/20 04:13:37;;;;;;;13.57;6.28;;;;;;;;;;4972076;28;20038;-53
2023/02/20 04:16:03;;;;;;;9.85;6.22;;;;;;;;;;4972901;28;20038;-56
2023/02/20 04:18:29;;;;;;;13.27;6.80;;;;;;;;;;4963595;28;20031;-54
2023/02/20 04:20:56;;;;;;;12.60;6.88;;;;;;;;;;4956646;28;20034;-51
2023/02/20 04:23:29;;;;;;;14.38;6.65;;;;;;;;;;4963218;28;20035;-53
2023/02/20 04:26:04;;;;;;;10.05;6.13;;;;;;;;;;4957381;28;20054;-47
2023/02/20 04:28:32;;;;;;;10.27;6.32;;;;;;;;;;4978707;28;20125;-57
2023/02/20 04:31:01;;;;;;;12.88;6.20;;;;;;;;;;4960762;28;20578;-52
2023/02/20 04:33:27;;;;;;;13.48;6.88;;;;;;;;;;4955530;28;20046;-59
2023/02/20 04:35:57;;;;;;;14.73;6.53;;;;;;;;;;4962594;28;20042;-51
2023/02/20 04:38:24;;;;;;;13.45;6.72;;;;;;;;;;4961463;28;20084;-54
2023/02/20 04:40:49;;;;;;;17.88;6.45;;;;;;;;;;4956803;28;20042;-56
2023/02/20 04:43:15;;;;;;;19.58;7.25;;;;;;;;;;4965353;28;20034;-56
2023/02/20 04:45:41;;;;;;;15.50;7.50;;;;;;;;;;4961973;28;20035;-52
2023/02/20 04:48:06;;;;;;;12.27;7.03;;;;;;;;;;4958031;28;20039;-53
2023/02/20 04:50:32;;;;;;;15.95;7.53;;;;;;;;;;4961552;28;20062;-51
2023/02/20 04:52:58;;;;;;;12.73;6.90;;;;;;;;;;4962882;28;20471;-54
2023/02/20 04:55:24;;;;;;;15.02;6.53;;;;;;;;;;4947041;28;20027;-56
2023/02/20 04:57:52;;;;;;;22.23;8.00;;;;;;;;;;4962931;28;20026;-60
2023/02/20 05:00:20;;;;;;;36.33;7.75;;;;;;;;;;4961475;28;20034;-51
2023/02/20 05:02:46;;;;;;;17.75;6.95;;;;;;;;;;4964187;28;20042;-49
2023/02/20 05:05:22;;;;;;;16.27;6.55;;;;;;;;;;4962512;28;20091;-49
2023/02/20 05:07:47;;;;;;;10.48;6.35;;;;;;;;;;4962983;28;20038;-55
2023/02/20 05:10:17;;;;;;;12.60;6.65;;;;;;;;;;4960968;28;20396;-49
2023/02/20 05:12:42;;;;;;;14.95;6.90;;;;;;;;;;4963125;28;20049;-53
2023/02/20 05:15:07;;;;;;;15.70;7.00;;;;;;;;;;4962112;28;20050;-50
2023/02/20 05:17:33;;;;;;;12.93;6.00;;;;;;;;;;4961547;28;20075;-58
2023/02/20 05:19:58;;;;;;;9.65;5.65;;;;;;;;;;4962238;28;20475;-50
2023/02/20 05:22:23;;;;;;;13.45;6.32;;;;;;;;;;4963492;28;20117;-54
2023/02/20 05:24:50;;;;;;;12.07;5.65;;;;;;;;;;4963806;28;20042;-50
2023/02/20 05:27:16;;;;;;;9.83;6.23;;;;;;;;;;4966899;28;20037;-58
2023/02/20 05:29:45;;;;;;;12.07;5.95;;;;;;;;;;4964506;28;20035;-50
2023/02/20 05:32:10;;;;;;;12.85;6.65;;;;;;;;;;4968083;28;20023;-50
2023/02/20 05:34:35;;;;;;;13.15;6.25;;;;;;;;;;4970069;28;20369;-56
2023/02/20 05:37:01;;;;;;;13.02;6.40;;;;;;;;;;4966470;28;20387;-52
2023/02/20 05:39:26;;;;;;;10.52;6.32;;;;;;;;;;4965349;28;20038;-51
2023/02/20 05:41:51;;;;;;;9.88;5.95;;;;;;;;;;4964682;28;20053;-56
2023/02/20 05:44:17;;;;;;;12.18;6.30;;;;;;;;;;4969683;28;20566;-48
2023/02/20 05:46:42;;;;;;;8.25;5.57;;;;;;;;;;4964809;28;20073;-52
2023/02/20 05:49:10;;;;;;;16.00;6.35;;;;;;;;;;4966110;28;20058;-55
2023/02/20 05:51:36;;;;;;;12.32;5.90;;;;;;;;;;4966034;28;20126;-57
2023/02/20 05:54:01;;;;;;;9.75;6.45;;;;;;;;;;4965344;28;20077;-48
2023/02/20 05:56:28;;;;;;;10.38;6.10;;;;;;;;;;4965517;28;20101;-52
2023/02/20 05:58:54;;;;;;;11.55;6.20;;;;;;;;;;4964647;28;20034;-58
2023/02/20 06:01:21;;;;;;;13.50;7.25;;;;;;;;;;4966346;28;20038;-54
2023/02/20 06:03:47;;;;;;;19.75;8.10;;;;;;;;;;4963265;28;20050;-49
2023/02/20 06:06:12;;;;;;;13.15;7.43;;;;;;;;;;4959651;28;20113;-53
2023/02/20 06:08:38;;;;;;;15.40;7.55;;;;;;;;;;4964142;28;20037;-53
2023/02/20 06:11:03;;;;;;;18.10;8.63;;;;;;;;;;4966006;28;20042;-51
2023/02/20 06:13:28;;;;;;;14.82;7.80;;;;;;;;;;4960735;28;20129;-59
2023/02/20 06:15:54;;;;;;;12.38;7.40;;;;;;;;;;4966301;28;20023;-51
2023/02/20 06:18:19;;;;;;;14.32;7.50;;;;;;;;;;4966576;28;20054;-48
2023/02/20 06:20:44;;;;;;;12.40;7.18;;;;;;;;;;4962667;28;20573;-58
2023/02/20 06:23:10;;;;;;;12.50;6.70;;;;;;;;;;4966847;28;20054;-54
2023/02/20 06:25:35;;;;;;;14.85;7.22;;;;;;;;;;4964657;28;20027;-52
2023/02/20 06:28:00;;;;;;;14.20;6.85;;;;;;;;;;4963743;28;20046;-49
2023/02/20 06:30:25;;;;;;;12.05;7.18;;;;;;;;;;4961275;28;20031;-57
2023/02/20 06:32:51;;;;;;;13.93;6.85;;;;;;;;;;4958722;28;20038;-55
2023/02/20 06:35:17;;;;;;;17.33;6.25;;;;;;;;;;4961217;28;20039;-52
2023/02/20 06:37:42;;;;;;;14.30;6.50;;;;;;;;;;4962883;28;20125;-55
2023/02/20 06:40:07;;;;;;;12.98;6.25;;;;;;;;;;4964178;28;20037;-53
2023/02/20 06:42:33;;;;;;;12.75;6.55;;;;;;;;;;4964431;28;20058;-54
2023/02/20 06:44:58;;;;;;;15.60;8.35;;;;;;;;;;4964773;28;20034;-54
2023/02/20 06:47:23;;;;;;;12.63;7.13;;;;;;;;;;4963805;28;20034;-55
2023/02/20 06:49:49;;;;;;;11.07;6.28;;;;;;;;;;4959121;28;20129;-54
2023/02/20 06:52:14;;;;;;;13.68;6.55;;;;;;;;;;4963428;28;20030;-55
2023/02/20 06:54:39;;;;;;;14.23;6.45;;;;;;;;;;4961597;28;20034;-54
2023/02/20 06:57:05;;;;;;;14.05;6.55;;;;;;;;;;4964672;28;20078;-50
2023/02/20 06:59:30;;;;;;;10.95;5.72;;;;;;;;;;4958538;28;20031;-55
2023/02/20 07:01:56;;;;;;;12.77;5.82;;;;;;;;;;4963193;28;20460;-52
2023/02/20 07:04:22;;;;;;;12.40;6.30;;;;;;;;;;4966129;28;20030;-53
2023/02/20 07:06:48;;;;;;;11.40;5.50;;;;;;;;;;4974290;28;20038;-54
2023/02/20 07:09:14;;;;;;;11.90;5.88;;;;;;;;;;4967721;28;20041;-54
2023/02/20 07:11:39;;;;;;;11.32;5.75;;;;;;;;;;4964582;28;20050;-48
2023/02/20 07:14:04;;;;;;;11.68;6.18;;;;;;;;;;4965034;28;20046;-53
2023/02/20 07:16:30;;;;;;;13.48;5.72;;;;;;;;;;4963979;28;20023;-50
2023/02/20 07:18:55;;;;;;;14.25;6.72;;;;;;;;;;4967743;28;20030;-49
2023/02/20 07:21:21;;;;;;;13.05;5.97;;;;;;;;;;4975517;28;20026;-57
2023/02/20 07:23:47;;;;;;;11.98;6.47;;;;;;;;;;4963477;28;20038;-55
2023/02/20 07:26:39;;;;;;;11.10;6.20;;;;;;;;;;4962890;28;20061;-57
2023/02/20 07:29:05;;;;;;;12.05;5.85;;;;;;;;;;4961427;28;20047;-51
2023/02/20 07:31:30;;;;;;;12.27;6.50;;;;;;;;;;4961603;28;20038;-55
2023/02/20 07:33:56;;;;;;;13.98;6.60;;;;;;;;;;4965720;28;20620;-49
2023/02/20 07:36:21;;;;;;;14.20;6.78;;;;;;;;;;4950997;28;20027;-53
2023/02/20 07:38:52;;;;;;;13.98;7.20;;;;;;;;;;4964417;28;20110;-50
2023/02/20 07:41:17;;;;;;;10.95;6.60;;;;;;;;;;4964098;28;20038;-50
2023/02/20 07:43:43;;;;;;;12.27;6.72;;;;;;;;;;4964641;28;20652;-56
2023/02/20 07:46:08;;;;;;;12.45;6.68;;;;;;;;;;4966538;28;20084;-50
2023/02/20 07:48:34;;;;;;;12.25;6.43;;;;;;;;;;4963499;28;20046;-50
2023/02/20 07:50:59;;;;;;;12.60;6.30;;;;;;;;;;4962235;28;20110;-52
2023/02/20 07:53:24;;;;;;;10.48;5.90;;;;;;;;;;4963608;28;20039;-49
2023/02/20 07:55:50;;;;;;;10.52;5.70;;;;;;;;;;4966356;28;20475;-56
2023/02/20 07:58:15;;;;;;;12.48;5.80;;;;;;;;;;4963662;28;20038;-56
2023/02/20 08:00:40;;;;;;;10.63;5.68;;;;;;;;;;4963892;28;20026;-53
2023/02/20 08:03:05;;;;;;;12.88;5.22;;;;;;;;;;4965151;28;20394;-51
2023/02/20 08:05:31;;;;;;;14.55;6.10;;;;;;;;;;4960348;28;20115;-51
2023/02/20 08:07:56;;;;;;;12.40;5.90;;;;;;;;;;4963490;28;20035;-47
2023/02/20 08:10:23;;;;;;;8.40;4.95;;;;;;;;;;4960448;28;20541;-51
2023/02/20 08:12:49;;;;;;;9.75;5.47;;;;;;;;;;4964233;28;20031;-50
2023/02/20 08:15:17;;;;;;;12.75;5.18;;;;;;;;;;4966976;28;20067;-48
2023/02/20 08:17:43;;;;;;;43.90;13.32;;;;;;;;;;4966580;28;20039;-48
2023/02/20 08:20:09;;;;;;;10.50;5.27;;;;;;;;;;4965003;28;20105;-49
2023/02/20 08:22:34;;;;;;;9.75;4.65;;;;;;;;;;4963068;28;20277;-48
2023/02/20 08:25:00;;;;;;;9.32;4.25;;;;;;;;;;4963988;28;20126;-52
2023/02/20 08:27:26;;;;;;;10.82;3.85;;;;;;;;;;4962578;28;20033;-53
2023/02/20 08:29:51;;;;;;;10.80;4.05;;;;;;;;;;4966536;28;20460;-50
2023/02/20 08:32:17;;;;;;;10.50;3.95;;;;;;;;;;4965125;28;20047;-58
2023/02/20 08:34:42;;;;;;;8.75;4.25;;;;;;;;;;4963905;28;20760;-54
2023/02/20 08:37:08;;;;;;;9.68;3.78;;;;;;;;;;4963596;28;20034;-53
2023/02/20 08:39:34;;;;;;;10.20;3.70;;;;;;;;;;4964011;28;20481;-51
2023/02/20 08:41:59;;;;;;;10.82;3.92;;;;;;;;;;4964178;28;20276;-55
2023/02/20 08:44:25;;;;;;;11.85;3.67;;;;;;;;;;4966111;28;20030;-52
2023/02/20 08:46:50;;;;;;;10.43;3.75;;;;;;;;;;4964654;28;20077;-50
2023/02/20 08:49:17;;;;;;;9.00;3.47;;;;;;;;;;4968234;28;20391;-52
2023/02/20 08:51:46;;;;;;;10.65;3.95;;;;;;;;;;4963974;28;20042;-54
2023/02/20 08:54:12;;;;;;;9.05;3.40;;;;;;;;;;4954426;28;20034;-58
2023/02/20 08:56:37;;;;;;;7.65;3.20;;;;;;;;;;4965258;28;20078;-53
2023/02/20 08:59:02;;;;;;;9.82;3.30;;;;;;;;;;4962857;28;20340;-50
2023/02/20 09:01:28;;;;;;;6.50;3.08;;;;;;;;;;4962963;28;20031;-51
2023/02/20 09:03:56;;;;;;;12.43;3.95;;;;;;;;;;4964299;28;20030;-54
2023/02/20 09:06:24;;;;;;;8.02;3.35;;;;;;;;;;4963707;28;20380;-52
2023/02/20 09:08:50;;;;;;;8.40;3.53;;;;;;;;;;4963213;28;20038;-54
2023/02/20 09:11:18;;;;;;;9.60;3.55;;;;;;;;;;4963758;28;20034;-53
2023/02/20 09:13:43;;;;;;;8.43;3.60;;;;;;;;;;4962805;28;20197;-57
2023/02/20 09:16:09;;;;;;;9.23;3.42;;;;;;;;;;4979929;28;20484;-50
2023/02/20 09:18:34;;;;;;;10.05;3.85;;;;;;;;;;4962789;28;20582;-56
2023/02/20 09:20:59;;;;;;;8.52;3.45;;;;;;;;;;4964824;28;20053;-54
2023/02/20 09:23:26;;;;;;;8.98;3.60;;;;;;;;;;4962262;28;20058;-49
2023/02/20 09:25:52;;;;;;;12.63;4.25;;;;;;;;;;4966237;28;20851;-50
2023/02/20 09:28:18;;;;;;;15.10;3.55;;;;;;;;;;4965471;28;20019;-53
2023/02/20 09:30:43;;;;;;;7.07;3.20;;;;;;;;;;4967434;28;20393;-47
2023/02/20 09:33:08;;;;;;;8.52;3.55;;;;;;;;;;4964295;28;20031;-54
2023/02/20 09:35:33;;;;;;;9.02;3.92;;;;;;;;;;4963735;28;20034;-50
2023/02/20 09:38:00;;;;;;;11.18;3.45;;;;;;;;;;4964450;28;20050;-52
2023/02/20 09:40:27;;;;;;;7.43;3.17;;;;;;;;;;4964585;28;20053;-53
2023/02/20 09:42:58;;;;;;;7.90;3.05;;;;;;;;;;4964722;28;20460;-51
2023/02/20 09:45:25;;;;;;;9.57;3.30;;;;;;;;;;4965198;28;20103;-54
2023/02/20 09:48:03;;;;;;;7.55;3.17;;;;;;;;;;4964112;28;20046;-50
2023/02/20 09:50:29;;;;;;;9.60;3.03;;;;;;;;;;4955600;28;20109;-55
2023/02/20 09:53:04;;;;;;;12.20;3.83;;;;;;;;;;4964612;28;20450;-49
2023/02/20 09:55:33;;;;;;;8.45;3.17;;;;;;;;;;4965163;28;20045;-47
2023/02/20 09:57:59;;;;;;;9.27;3.33;;;;;;;;;;4961402;28;20035;-51
2023/02/20 10:00:30;;;;;;;9.60;3.17;;;;;;;;;;4961424;28;20554;-53
2023/02/20 10:03:12;;;;;;;9.02;3.15;;;;;;;;;;4963157;28;20356;-51
2023/02/20 10:05:38;;;;;;;5.38;3.00;;;;;;;;;;4963076;28;20110;-49
2023/02/20 10:08:03;;;;;;;6.65;3.05;;;;;;;;;;4962391;28;20092;-48
2023/02/20 10:10:37;;;;;;;11.20;3.38;;;;;;;;;;4960051;28;20031;-54
2023/02/20 10:13:10;;;;;;;8.55;3.38;;;;;;;;;;4965304;28;20461;-55
2023/02/20 10:15:45;;;;;;;6.68;2.90;;;;;;;;;;4966399;28;20038;-54
2023/02/20 10:18:23;;;;;;;9.05;3.03;;;;;;;;;;4965066;28;20030;-53
2023/02/20 10:20:48;;;;;;;9.27;3.15;;;;;;;;;;4966270;28;20065;-54
2023/02/20 10:23:19;;;;;;;9.80;3.20;;;;;;;;;;4967271;28;20054;-56
2023/02/20 10:25:47;;;;;;;7.80;3.25;;;;;;;;;;4968697;28;20031;-55
2023/02/20 10:28:15;;;;;;;6.40;2.92;;;;;;;;;;4968616;28;20033;-47
2023/02/20 10:30:40;;;;;;;;;;;;;;;;;;4969311;28;20026;-50
2023/02/20 10:33:16;;;;;;;12.35;3.10;;;;;;;;;;4968402;28;19918;-55
2023/02/20 10:35:48;;;;;;;5.82;3.00;;;;;;;;;;4960702;28;20148;-52
2023/02/20 10:38:19;;;;;;;8.57;3.45;;;;;;;;;;4962808;28;20554;-55
2023/02/20 10:40:56;;;;;;;8.52;3.42;;;;;;;;;;4964189;28;20111;-52
2023/02/20 10:43:22;;;;;;;;;;;;;;;;;;4963839;28;20173;-55
2023/02/20 10:45:53;;;;;;;8.43;3.20;;;;;;;;;;4962665;28;19922;-55
2023/02/20 10:48:20;;;;;;;7.90;3.10;;;;;;;;;;4963268;28;20037;-52
2023/02/20 10:50:52;;;;;;;8.73;3.05;;;;;;;;;;4963639;28;20042;-56
2023/02/20 10:53:36;;;;;;;12.90;3.22;;;;;;;;;;4962447;28;20046;-54
2023/02/20 10:56:10;;;;;;;9.30;3.13;;;;;;;;;;4961558;28;20539;-48
2023/02/20 10:58:39;;;;;;;5.90;3.00;;;;;;;;;;4964689;28;20026;-50
2023/02/20 11:01:06;;;;;;;7.78;3.38;;;;;;;;;;4963245;28;20049;-52
2023/02/20 11:03:41;;;;;;;11.60;3.53;;;;;;;;;;4961141;28;20031;-48
2023/02/20 11:06:08;;;;;;;8.73;3.30;;;;;;;;;;4964649;28;20030;-54
2023/02/20 11:08:33;;;;;;;8.35;3.03;;;;;;;;;;4964432;28;20057;-51
2023/02/20 11:11:04;;;;;;;5.75;2.90;;;;;;;;;;4961925;28;20460;-55
2023/02/20 11:13:29;;;;;;;8.05;3.25;;;;;;;;;;4964053;28;20081;-52
2023/02/20 11:15:55;;;;;;;8.10;3.10;;;;;;;;;;4961968;28;20030;-51
2023/02/20 11:18:27;;;;;;;10.13;3.28;;;;;;;;;;4963615;28;20110;-51
2023/02/20 11:20:52;;;;;;;6.22;2.78;;;;;;;;;;4962827;28;20030;-53
2023/02/20 11:23:38;;;;;;;8.80;3.40;;;;;;;;;;4962199;28;20042;-52
2023/02/20 11:26:21;;;;;;;8.48;3.30;;;;;;;;;;4965850;28;20050;-58
2023/02/20 11:28:57;;;;;;;14.77;3.50;;;;;;;;;;4963190;28;20031;-52
2023/02/20 11:31:23;;;;;;;7.60;3.20;;;;;;;;;;4961482;28;20041;-58
2023/02/20 11:33:51;;;;;;;6.97;3.08;;;;;;;;;;4965233;28;20118;-51
2023/02/20 11:36:19;;;;;;;7.90;3.45;;;;;;;;;;4965897;28;20030;-57
2023/02/20 11:38:45;;;;;;;10.00;4.05;;;;;;;;;;4962278;28;20063;-58
2023/02/20 11:41:43;;;;;;;6.55;2.80;;;;;;;;;;4961604;28;20059;-48
2023/02/20 11:44:23;;;;;;;9.30;2.95;;;;;;;;;;4946283;28;20060;-51
2023/02/20 11:47:07;;;;;;;8.60;2.88;;;;;;;;;;4965010;28;20026;-56
2023/02/20 11:49:32;;;;;;;7.70;2.97;;;;;;;;;;4963187;28;20053;-56
2023/02/20 11:52:08;;;;;;;9.48;3.45;;;;;;;;;;4963651;28;20476;-54
2023/02/20 11:54:34;;;;;;;9.25;3.13;;;;;;;;;;4964433;28;20039;-53
2023/02/20 11:57:15;;;;;;;8.27;3.83;;;;;;;;;;4963697;28;20034;-54
2023/02/20 11:59:41;;;;;;;8.88;2.85;;;;;;;;;;4964646;28;20044;-55
2023/02/20 12:02:10;;;;;;;6.50;2.75;;;;;;;;;;4962631;28;20026;-53
2023/02/20 12:04:35;;;;;;;8.70;3.10;;;;;;;;;;4961594;28;20532;-57
2023/02/20 12:07:15;;;;;;;8.40;3.05;;;;;;;;;;4963578;28;20029;-54
2023/02/20 12:09:41;;;;;;;9.48;3.25;;;;;;;;;;4957826;28;20035;-55
2023/02/20 12:12:07;;;;;;;8.60;3.87;;;;;;;;;;4965451;28;20030;-56
2023/02/20 12:14:32;;;;;;;7.88;2.47;;;;;;;;;;4964396;28;20043;-56
2023/02/20 12:17:05;;;;;;;7.78;3.78;;;;;;;;;;4963415;28;20026;-53
2023/02/20 12:19:53;;;;;;;7.72;2.90;;;;;;;;;;4963080;28;20160;-53
2023/02/20 12:22:33;;;;;;;7.45;2.53;;;;;;;;;;4959230;28;20051;-50
2023/02/20 12:25:03;;;;;;;5.43;2.30;;;;;;;;;;4963774;28;20134;-51
2023/02/20 12:27:34;;;;;;;5.70;2.40;;;;;;;;;;4962879;28;20498;-54
2023/02/20 12:30:18;;;;;;;7.05;2.63;;;;;;;;;;4962504;28;20030;-52
2023/02/20 12:32:44;;;;;;;6.05;2.38;;;;;;;;;;4963358;28;20069;-51
2023/02/20 12:35:15;;;;;;;6.65;2.20;;;;;;;;;;4965161;28;20130;-48
2023/02/20 12:37:50;;;;;;;6.18;2.40;;;;;;;;;;4961910;28;20400;-58
2023/02/20 12:40:19;;;;;;;9.15;2.50;;;;;;;;;;4965239;28;20512;-55
2023/02/20 12:42:44;;;;;;;5.47;2.15;;;;;;;;;;4980509;28;20050;-50
2023/02/20 12:45:15;;;;;;;5.93;2.60;;;;;;;;;;4964789;28;20053;-53
2023/02/20 12:47:42;;;;;;;5.85;2.45;;;;;;;;;;4959474;28;20038;-54
2023/02/20 12:50:28;;;;;;;4.85;2.38;;;;;;;;;;4963782;28;20031;-49
2023/02/20 12:52:53;;;;;;;9.18;2.42;;;;;;;;;;4965002;28;20034;-52
2023/02/20 12:55:21;;;;;;;7.95;2.50;;;;;;;;;;4962779;28;20030;-53
2023/02/20 12:57:47;;;;;;;6.70;2.63;;;;;;;;;;4962945;28;20476;-56
2023/02/20 13:00:24;;;;;;;7.30;2.30;;;;;;;;;;4964566;28;20049;-52
2023/02/20 13:02:52;;;;;;;6.05;2.30;;;;;;;;;;4963824;28;20458;-59
2023/02/20 13:05:21;;;;;;;9.20;2.70;;;;;;;;;;4963866;28;20062;-52
2023/02/20 13:07:46;;;;;;;6.78;2.50;;;;;;;;;;4965032;28;20026;-52
2023/02/20 13:10:14;;;;;;;6.80;2.27;;;;;;;;;;4957847;28;20423;-58
2023/02/20 13:12:39;;;;;;;6.03;2.15;;;;;;;;;;4963488;28;20073;-56
2023/02/20 13:15:28;;;;;;;5.97;2.00;;;;;;;;;;4965246;28;20467;-48
2023/02/20 13:18:07;;;;;;;5.85;2.20;;;;;;;;;;4955695;28;20134;-60
2023/02/20 13:20:38;;;;;;;8.20;2.13;;;;;;;;;;4964268;28;20033;-50
2023/02/20 13:23:16;;;;;;;5.38;1.95;;;;;;;;;;4963013;28;20373;-53
2023/02/20 13:25:48;;;;;;;9.20;2.15;;;;;;;;;;4962891;28;20053;-51
2023/02/20 13:28:19;;;;;;;4.65;1.98;;;;;;;;;;4962816;28;20107;-51
2023/02/20 13:30:44;;;;;;;5.00;1.92;;;;;;;;;;4961964;28;20437;-52
2023/02/20 13:33:12;;;;;;;4.27;1.80;;;;;;;;;;4964727;28;20037;-56
2023/02/20 13:35:41;;;;;;;5.72;1.60;;;;;;;;;;4963450;28;20109;-52
2023/02/20 13:38:13;;;;;;;4.75;1.70;;;;;;;;;;4965675;28;20046;-60
2023/02/20 13:40:39;;;;;;;7.80;1.90;;;;;;;;;;4964587;28;20074;-53
2023/02/20 13:43:11;;;;;;;5.63;1.95;;;;;;;;;;4960792;28;20046;-52
2023/02/20 13:45:40;;;;;;;4.70;1.63;;;;;;;;;;4961731;28;20031;-55
2023/02/20 13:48:24;;;;;;;4.95;1.77;;;;;;;;;;4968777;28;20034;-56
2023/02/20 13:50:49;;;;;;;4.18;1.52;;;;;;;;;;4962966;28;20106;-52
2023/02/20 13:53:14;;;;;;;4.07;1.60;;;;;;;;;;4968420;28;20113;-50
2023/02/20 13:55:40;;;;;;;6.13;1.87;;;;;;;;;;4966217;28;20034;-55
2023/02/20 13:58:13;;;;;;;7.67;1.80;;;;;;;;;;4966693;28;20662;-54
2023/02/20 14:00:38;;;;;;;5.15;1.73;;;;;;;;;;4964708;28;20046;-54
2023/02/20 14:03:11;;;;;;;4.90;1.70;;;;;;;;;;4966874;28;20035;-52
2023/02/20 14:05:36;;;;;;;4.57;1.63;;;;;;;;;;4964470;28;20035;-59
2023/02/20 14:08:04;;;;;;;5.10;1.92;;;;;;;;;;4966989;28;20034;-54
2023/02/20 14:10:29;;;;;;;5.10;1.73;;;;;;;;;;4966585;28;20080;-53
2023/02/20 14:13:00;;;;;;;4.33;1.70;;;;;;;;;;4967254;28;20047;-56
2023/02/20 14:15:25;;;;;;;6.40;1.90;;;;;;;;;;4966573;28;20038;-53
2023/02/20 14:17:51;;;;;;;8.23;2.00;;;;;;;;;;4965797;28;20039;-54
2023/02/20 14:20:19;;;;;;;4.65;2.00;;;;;;;;;;4963165;28;20112;-52
2023/02/20 14:22:44;;;;;;;4.65;1.90;;;;;;;;;;4968689;28;20038;-47
2023/02/20 14:25:18;;;;;;;5.67;1.60;;;;;;;;;;4966641;28;20038;-54
2023/02/20 14:27:44;;;;;;;5.55;1.70;;;;;;;;;;4966046;28;20062;-54
2023/02/20 14:30:12;;;;;;;4.87;1.70;;;;;;;;;;4964746;28;20455;-52
2023/02/20 14:32:41;;;;;;;6.90;1.45;;;;;;;;;;4966695;28;20039;-54
2023/02/20 14:35:28;;;;;;;4.60;1.50;;;;;;;;;;4959543;28;20110;-50
2023/02/20 14:38:16;;;;;;;6.05;1.67;;;;;;;;;;4968470;28;20118;-56
2023/02/20 14:40:43;;;;;;;5.95;1.52;;;;;;;;;;4966345;28;20153;-58
2023/02/20 14:43:19;;;;;;;2.97;1.42;;;;;;;;;;4968270;28;20042;-56
2023/02/20 14:45:46;;;;;;;7.75;1.80;;;;;;;;;;4965931;28;20035;-53
2023/02/20 14:48:28;;;;;;;4.90;1.55;;;;;;;;;;4963459;28;20034;-55
2023/02/20 14:51:12;;;;;;;5.35;1.50;;;;;;;;;;4966167;28;20034;-58
2023/02/20 14:53:37;;;;;;;8.20;1.70;;;;;;;;;;4964090;28;20553;-55
2023/02/20 14:56:30;;;;;;;8.47;1.60;;;;;;;;;;4966092;28;20034;-54
2023/02/20 14:58:55;;;;;;;4.53;1.70;;;;;;;;;;4963088;28;20122;-55
2023/02/20 15:01:27;;;;;;;5.23;1.67;;;;;;;;;;4966290;28;20031;-51